This is the latest recevied weather packets stored in our database for station/object KN4CI-1. If no packets are shown the sender has not sent any weather packets the latest 10 day(s).
| Time | Temp. | Humidity | Pressure | Rain* | Wind** | Luminosity | Snow |
|---|---|---|---|---|---|---|---|
| 1777673309 | 19.44° C | 17% | 1013.6 hPa | 0 mm | 0 m/s | - | - |
| 1777672710 | 19.44° C | 17% | 1013.6 hPa | 0 mm | 0 m/s | - | - |
| 1777672405 | 19.44° C | 17% | 1013.6 hPa | 0 mm | 1.79 m/s, 335° | - | - |
| 1777672105 | 20° C | 17% | 1013.6 hPa | 0 mm | 1.34 m/s, 335° | - | - |
| 1777671886 | 20° C | 17% | 1013.6 hPa | 0 mm | 1.79 m/s, 335° | - | - |
| 1777671806 | 20° C | 17% | 1013.6 hPa | 0 mm | 1.79 m/s, 335° | - | - |
| 1777671500 | 20.56° C | 17% | 1013.6 hPa | 0 mm | 1.79 m/s, 341° | - | - |
| 1777671201 | 20.56° C | 17% | 1013.6 hPa | 0 mm | 1.34 m/s, 60° | - | - |
| 1777670899 | 20° C | 17% | 1013.6 hPa | 0 mm | 1.34 m/s, 54° | - | - |
| 1777669689 | 20.56° C | 17% | 1013.6 hPa | 0 mm | 2.24 m/s, 334° | - | - |
| 1777669389 | 20.56° C | 17% | 1013.6 hPa | 0 mm | 2.24 m/s, 331° | - | - |
| 1777668785 | 20.56° C | 17% | 1013.6 hPa | 0 mm | 1.34 m/s, 48° | - | - |
| 1777667882 | 20° C | 17% | 1014.6 hPa | 0 mm | 1.79 m/s, 337° | - | - |
| 1777662762 | 18.89° C | 17% | 1015.6 hPa | 0 mm | 1.79 m/s, 351° | - | - |
| 1777662456 | 19.44° C | 17% | 1016.6 hPa | 0 mm | 1.34 m/s, 327° | - | - |
| 1777662146 | 19.44° C | 17% | 1016.6 hPa | 0 mm | 2.24 m/s, 351° | - | - |
| 1777660942 | 18.89° C | 17% | 1015.6 hPa | 0 mm | 1.79 m/s, 356° | - | - |
| 1777660635 | 18.89° C | 17% | 1015.6 hPa | 0 mm | 1.79 m/s, 323° | - | - |
| 1777660330 | 18.89° C | 17% | 1015.6 hPa | 0 mm | 1.79 m/s, 305° | - | - |
| 1777660030 | 18.89° C | 17% | 1015.6 hPa | 0 mm | 1.79 m/s, 330° | - | - |
| 1777659726 | 18.89° C | 17% | 1015.6 hPa | 0 mm | 2.24 m/s, 336° | - | - |
| 1777659426 | 18.89° C | 17% | 1015.6 hPa | 0 mm | 1.34 m/s, 351° | - | - |
| 1777659127 | 18.33° C | 17% | 1015.6 hPa | 0 mm | 1.79 m/s, 351° | - | - |
| 1777658822 | 18.33° C | 18% | 1015.6 hPa | 0 mm | 2.68 m/s, 333° | - | - |
| 1777658523 | 18.33° C | 18% | 1015.6 hPa | 0 mm | 1.79 m/s, 351° | - | - |
* Rain latest hour (hover to see other rain measurements)
** Current wind speed in m/s (hover to see current wind gust speed)